createdAt,value
2023-05-02T00:01:04.449Z,41.43
2023-05-02T00:03:30.871Z,41.56
2023-05-02T00:06:00.091Z,41.67
2023-05-02T00:08:26.499Z,41.53
2023-05-02T00:10:52.849Z,42.13
2023-05-02T00:13:19.187Z,41.16
2023-05-02T00:15:45.554Z,41.69
2023-05-02T00:18:12.778Z,41.30
2023-05-02T00:20:39.178Z,41.50
2023-05-02T00:23:05.513Z,41.24
2023-05-02T00:25:31.856Z,41.40
2023-05-02T00:27:58.212Z,41.41
2023-05-02T00:30:24.540Z,41.57
2023-05-02T00:32:50.959Z,41.12
2023-05-02T00:35:18.244Z,41.31
2023-05-02T00:37:44.605Z,41.37
2023-05-02T00:40:10.950Z,41.69
2023-05-02T00:42:37.316Z,41.85
2023-05-02T00:45:03.694Z,41.40
2023-05-02T00:47:30.069Z,41.66
2023-05-02T00:49:56.483Z,42.01
2023-05-02T00:52:22.842Z,41.98
2023-05-02T00:54:49.203Z,41.56
2023-05-02T00:57:15.527Z,40.92
2023-05-02T00:59:41.900Z,41.90
2023-05-02T01:02:08.291Z,41.18
2023-05-02T01:04:34.681Z,41.49
2023-05-02T01:07:01.022Z,42.19
2023-05-02T01:09:27.358Z,41.15
2023-05-02T01:11:53.735Z,41.91
2023-05-02T01:14:20.940Z,42.31
2023-05-02T01:16:47.303Z,42.08
2023-05-02T01:21:57.744Z,41.78
2023-05-02T01:24:26.854Z,42.23
2023-05-02T01:26:53.183Z,42.35
2023-05-02T01:29:19.523Z,42.29
2023-05-02T01:31:45.898Z,43.38
2023-05-02T01:36:56.248Z,43.11
2023-05-02T01:39:22.595Z,42.76
2023-05-02T01:41:48.945Z,42.43
2023-05-02T01:44:15.308Z,43.42
2023-05-02T01:46:41.705Z,43.12
2023-05-02T01:51:52.103Z,43.26
2023-05-02T01:54:18.471Z,42.79
2023-05-02T01:56:44.824Z,43.48
2023-05-02T01:59:11.181Z,43.10
2023-05-02T02:01:37.582Z,43.17
2023-05-02T02:06:48.234Z,43.45
2023-05-02T02:09:14.743Z,43.37
2023-05-02T02:11:41.088Z,42.89
2023-05-02T02:14:07.476Z,43.01
2023-05-02T02:16:33.834Z,43.31
2023-05-02T02:21:44.098Z,42.85
2023-05-02T02:24:10.472Z,43.19
2023-05-02T02:26:36.819Z,43.48
2023-05-02T02:29:03.149Z,44.01
2023-05-02T02:31:29.532Z,43.83
2023-05-02T02:36:39.778Z,44.14
2023-05-02T02:39:06.136Z,43.72
2023-05-02T02:41:32.458Z,44.53
2023-05-02T02:43:58.809Z,43.87
2023-05-02T02:46:25.246Z,44.14
2023-05-02T02:51:35.778Z,44.07
2023-05-02T02:54:03.239Z,44.08
2023-05-02T02:56:32.262Z,44.50
2023-05-02T02:58:58.633Z,43.99
2023-05-02T03:01:25.039Z,44.62
2023-05-02T03:03:51.450Z,44.77
2023-05-02T03:06:18.728Z,44.95
2023-05-02T03:08:45.090Z,45.04
2023-05-02T03:11:11.433Z,45.02
2023-05-02T03:13:37.797Z,44.35
2023-05-02T03:16:04.284Z,45.13
2023-05-02T03:18:30.689Z,44.74
2023-05-02T03:20:57.046Z,44.70
2023-05-02T03:23:23.353Z,45.41
2023-05-02T03:25:49.683Z,45.20
2023-05-02T03:28:16.029Z,45.01
2023-05-02T03:30:42.332Z,44.95
2023-05-02T03:33:08.763Z,45.29
2023-05-02T03:35:35.192Z,44.36
2023-05-02T03:38:01.530Z,44.17
2023-05-02T03:40:27.881Z,44.52
2023-05-02T03:42:54.246Z,44.24
2023-05-02T03:45:20.600Z,45.65
2023-05-02T03:47:46.977Z,44.25
2023-05-02T03:50:13.397Z,44.44
2023-05-02T03:52:39.742Z,45.06
2023-05-02T03:55:06.102Z,45.33
2023-05-02T03:57:32.458Z,45.52
2023-05-02T03:59:59.046Z,46.06
2023-05-02T04:02:25.678Z,45.88
2023-05-02T04:04:52.115Z,44.94
2023-05-02T04:07:18.551Z,45.57
2023-05-02T04:09:44.920Z,44.79
2023-05-02T04:12:11.251Z,45.04
2023-05-02T04:14:37.631Z,45.53
2023-05-02T04:17:04.114Z,45.16
2023-05-02T04:19:30.489Z,45.70
2023-05-02T04:24:40.919Z,47.71
2023-05-02T04:27:07.276Z,46.34
2023-05-02T04:29:33.690Z,45.29
2023-05-02T04:32:00.033Z,45.34
2023-05-02T04:34:26.371Z,45.83
2023-05-02T04:39:46.782Z,46.10
2023-05-02T04:42:13.113Z,45.66
2023-05-02T04:44:39.426Z,45.39
2023-05-02T04:47:05.778Z,44.57
2023-05-02T04:49:32.184Z,44.39
2023-05-02T04:54:42.324Z,45.13
2023-05-02T04:57:09.542Z,44.48
2023-05-02T04:59:35.880Z,44.56
2023-05-02T05:02:02.243Z,43.94
2023-05-02T05:04:28.657Z,43.69
2023-05-02T05:09:49.403Z,44.44
2023-05-02T05:12:16.928Z,44.38
2023-05-02T05:14:43.298Z,44.61
2023-05-02T05:17:10.501Z,44.06
2023-05-02T05:19:36.847Z,43.88
2023-05-02T05:24:49.719Z,43.38
2023-05-02T05:27:18.029Z,43.57
2023-05-02T05:29:44.461Z,42.33
2023-05-02T05:32:10.978Z,41.46
2023-05-02T05:34:37.440Z,41.43
2023-05-02T05:39:59.173Z,41.53
2023-05-02T05:42:26.113Z,41.74
2023-05-02T05:44:52.499Z,41.93
2023-05-02T05:47:19.879Z,41.59
2023-05-02T05:49:46.345Z,42.00
2023-05-02T05:54:57.526Z,41.98
2023-05-02T05:57:23.949Z,41.95
2023-05-02T05:59:50.444Z,42.21
2023-05-02T06:02:17.894Z,42.47
2023-05-02T06:04:45.362Z,42.11
2023-05-02T06:09:55.917Z,42.08
2023-05-02T06:12:23.323Z,42.58
2023-05-02T06:14:49.783Z,42.67
2023-05-02T06:17:16.300Z,42.67
2023-05-02T06:19:42.746Z,42.36
2023-05-02T06:24:54.039Z,42.16
2023-05-02T06:27:20.489Z,42.22
2023-05-02T06:29:47.836Z,42.08
2023-05-02T06:32:14.264Z,42.49
2023-05-02T06:34:41.502Z,42.48
2023-05-02T06:37:08.763Z,42.27
2023-05-02T06:39:35.253Z,42.18
2023-05-02T06:42:03.537Z,42.62
2023-05-02T06:44:29.934Z,42.29
2023-05-02T06:46:59.105Z,42.41
2023-05-02T06:49:25.542Z,42.24
2023-05-02T06:51:52.017Z,42.27
2023-05-02T06:54:19.291Z,42.33
2023-05-02T06:56:46.601Z,42.40
2023-05-02T06:59:13.054Z,42.49
2023-05-02T07:01:39.647Z,42.47
2023-05-02T07:04:07.242Z,42.50
2023-05-02T07:06:34.647Z,42.49
2023-05-02T07:09:02.056Z,42.44
2023-05-02T07:11:28.529Z,42.47
2023-05-02T07:13:54.990Z,42.44
2023-05-02T07:16:21.457Z,42.58
2023-05-02T07:18:48.842Z,42.37
2023-05-02T07:21:16.118Z,41.95
2023-05-02T07:23:44.704Z,42.26
2023-05-02T07:26:11.119Z,42.39
2023-05-02T07:28:39.733Z,42.04
2023-05-02T07:31:06.202Z,42.00
2023-05-02T07:33:32.655Z,41.83
2023-05-02T07:35:59.995Z,41.78
2023-05-02T07:38:27.310Z,42.03
2023-05-02T07:40:53.741Z,41.49
2023-05-02T07:43:22.872Z,41.62
2023-05-02T07:45:49.267Z,42.04
2023-05-02T07:48:16.586Z,41.78
2023-05-02T07:50:43.032Z,41.77
2023-05-02T07:53:10.239Z,42.08
2023-05-02T07:58:21.485Z,41.93
2023-05-02T08:00:47.835Z,42.11
2023-05-02T08:03:14.370Z,42.19
2023-05-02T08:05:40.924Z,42.35
2023-05-02T08:08:07.572Z,42.21
2023-05-02T08:13:33.287Z,42.50
2023-05-02T08:15:59.948Z,42.66
2023-05-02T08:18:28.359Z,42.39
2023-05-02T08:20:54.956Z,42.80
2023-05-02T08:23:21.568Z,42.50
2023-05-02T08:28:32.275Z,42.81
2023-05-02T08:30:58.938Z,42.88
2023-05-02T08:33:25.577Z,42.89
2023-05-02T08:35:53.026Z,42.99
2023-05-02T08:38:19.680Z,43.56
2023-05-02T08:43:30.835Z,43.42
2023-05-02T08:45:57.209Z,43.69
2023-05-02T08:48:23.581Z,43.42
2023-05-02T08:50:49.915Z,43.55
2023-05-02T08:53:16.275Z,43.88
2023-05-02T08:58:26.980Z,43.59
2023-05-02T09:00:53.555Z,44.33
2023-05-02T09:03:22.705Z,44.08
2023-05-02T09:05:49.894Z,43.59
2023-05-02T09:08:16.335Z,43.86
2023-05-02T09:13:26.678Z,44.09
2023-05-02T09:15:53.142Z,43.69
2023-05-02T09:18:19.643Z,43.56
2023-05-02T09:20:47.977Z,43.32
2023-05-02T09:23:14.453Z,43.61
2023-05-02T09:28:25.638Z,43.36
2023-05-02T09:30:52.190Z,42.95
2023-05-02T09:33:19.485Z,43.42
2023-05-02T09:35:45.967Z,43.77
2023-05-02T09:38:12.399Z,43.81
2023-05-02T09:43:22.682Z,43.94
2023-05-02T09:45:49.945Z,43.56
2023-05-02T09:48:17.203Z,44.21
2023-05-02T09:50:43.687Z,43.72
2023-05-02T09:53:10.167Z,43.96
2023-05-02T09:55:36.621Z,43.79
2023-05-02T09:58:03.021Z,44.26
2023-05-02T10:00:32.206Z,44.16
2023-05-02T10:02:58.631Z,44.30
2023-05-02T10:05:25.886Z,44.58
2023-05-02T10:07:54.571Z,44.23
2023-05-02T10:10:21.911Z,44.42
2023-05-02T10:12:49.262Z,44.59
2023-05-02T10:15:16.692Z,45.08
2023-05-02T10:17:44.921Z,44.86
2023-05-02T10:20:12.367Z,44.73
2023-05-02T10:22:38.872Z,45.10
2023-05-02T10:25:06.309Z,45.08
2023-05-02T10:27:34.519Z,45.14
2023-05-02T10:30:01.933Z,45.19
2023-05-02T10:32:28.457Z,45.23
2023-05-02T10:34:56.262Z,45.59
2023-05-02T10:37:22.742Z,45.52
2023-05-02T10:39:49.208Z,45.79
2023-05-02T10:42:16.642Z,45.33
2023-05-02T10:44:43.107Z,45.69
2023-05-02T10:47:09.598Z,45.44
2023-05-02T10:49:37.020Z,45.99
2023-05-02T10:52:03.497Z,46.04
2023-05-02T10:54:30.864Z,45.73
2023-05-02T10:56:57.350Z,45.48
2023-05-02T10:59:23.823Z,45.63
2023-05-02T11:04:17.681Z,45.11
2023-05-02T11:06:44.299Z,45.81
2023-05-02T11:09:11.763Z,46.01
2023-05-02T11:11:38.235Z,46.49
2023-05-02T11:16:49.391Z,47.27
2023-05-02T11:19:16.911Z,46.54
2023-05-02T11:21:44.326Z,46.66
2023-05-02T11:24:10.804Z,47.32
2023-05-02T11:26:37.302Z,48.06
2023-05-02T11:31:49.138Z,48.40
2023-05-02T11:34:15.620Z,49.14
2023-05-02T11:36:43.026Z,48.95
2023-05-02T11:39:09.518Z,49.17
2023-05-02T11:41:36.005Z,48.48
2023-05-02T11:46:47.399Z,49.64
2023-05-02T11:49:15.331Z,49.74
2023-05-02T11:51:41.819Z,50.03
2023-05-02T11:54:08.305Z,49.93
2023-05-02T11:56:34.796Z,49.54
2023-05-02T12:01:46.085Z,50.05
2023-05-02T12:04:13.455Z,49.93
2023-05-02T12:06:39.951Z,49.69
2023-05-02T12:09:06.490Z,49.46
2023-05-02T12:11:32.991Z,49.43
2023-05-02T12:16:43.514Z,50.00
2023-05-02T12:19:10.109Z,50.00
2023-05-02T12:21:36.617Z,49.89
2023-05-02T12:24:03.083Z,50.23
2023-05-02T12:26:30.465Z,49.57
2023-05-02T12:31:41.809Z,49.23
2023-05-02T12:34:08.303Z,49.27
2023-05-02T12:36:34.761Z,49.31
2023-05-02T12:39:02.200Z,49.04
2023-05-02T12:41:29.631Z,48.96
2023-05-02T12:46:40.292Z,49.01
2023-05-02T12:51:34.140Z,48.72
2023-05-02T12:54:01.538Z,48.46
2023-05-02T12:56:28.862Z,48.35
2023-05-02T13:01:40.375Z,47.70
2023-05-02T13:04:07.003Z,47.71
2023-05-02T13:06:34.416Z,47.36
2023-05-02T13:09:01.758Z,47.28
2023-05-02T13:11:29.082Z,47.22
2023-05-02T13:13:56.403Z,47.02
2023-05-02T13:16:22.923Z,46.61
2023-05-02T13:18:50.439Z,46.64
2023-05-02T13:21:16.969Z,46.41
2023-05-02T13:23:43.407Z,46.38
2023-05-02T13:26:10.673Z,46.21
2023-05-02T13:28:37.165Z,46.21
2023-05-02T13:31:03.627Z,46.22
2023-05-02T13:33:30.107Z,46.15
2023-05-02T13:35:56.617Z,46.17
2023-05-02T13:38:23.853Z,45.80
2023-05-02T13:40:51.138Z,45.79
2023-05-02T13:43:17.632Z,45.23
2023-05-02T13:45:44.134Z,45.41
2023-05-02T13:48:12.526Z,44.99
2023-05-02T13:50:40.916Z,44.51
2023-05-02T13:53:08.148Z,44.70
2023-05-02T13:55:36.435Z,44.66
2023-05-02T13:58:04.762Z,44.23
2023-05-02T14:00:31.308Z,44.04
2023-05-02T14:02:58.694Z,43.87
2023-05-02T14:05:27.954Z,43.54
2023-05-02T14:07:55.196Z,44.00
2023-05-02T14:10:23.497Z,43.68
2023-05-02T14:12:49.997Z,43.55
2023-05-02T14:15:18.327Z,43.78
2023-05-02T14:17:44.858Z,43.48
2023-05-02T14:20:11.305Z,43.61
2023-05-02T14:22:39.661Z,43.69
2023-05-02T14:25:08.187Z,43.51
2023-05-02T14:27:36.516Z,43.27
2023-05-02T14:30:03.244Z,43.45
2023-05-02T14:35:13.843Z,43.15
2023-05-02T14:37:42.136Z,43.25
2023-05-02T14:40:08.579Z,43.32
2023-05-02T14:42:37.756Z,43.33
2023-05-02T14:45:04.216Z,42.90
2023-05-02T14:50:30.421Z,42.88
2023-05-02T14:52:58.841Z,43.13
2023-05-02T14:55:25.348Z,42.90
2023-05-02T14:57:53.811Z,43.14
2023-05-02T15:00:20.739Z,42.98
2023-05-02T15:05:33.065Z,42.81
2023-05-02T15:08:02.241Z,43.03
2023-05-02T15:10:30.574Z,42.88
2023-05-02T15:12:57.005Z,42.93
2023-05-02T15:15:23.484Z,43.13
2023-05-02T15:20:35.814Z,43.19
2023-05-02T15:25:28.656Z,42.95
2023-05-02T15:27:55.912Z,42.88
2023-05-02T15:30:24.234Z,43.22
2023-05-02T15:35:34.701Z,43.14
2023-05-02T15:38:01.199Z,42.95
2023-05-02T15:40:28.645Z,43.03
2023-05-02T15:42:55.035Z,43.16
2023-05-02T15:45:21.514Z,43.14
2023-05-02T15:50:43.190Z,43.27
2023-05-02T15:53:11.153Z,43.21
2023-05-02T15:55:37.628Z,43.33
2023-05-02T15:58:04.101Z,43.46
2023-05-02T16:00:31.548Z,43.21
2023-05-02T16:05:42.928Z,43.63
2023-05-02T16:08:09.461Z,43.56
2023-05-02T16:10:36.910Z,43.29
2023-05-02T16:13:03.354Z,43.11
2023-05-02T16:15:30.810Z,43.61
2023-05-02T16:20:52.977Z,43.91
2023-05-02T16:23:19.396Z,43.76
2023-05-02T16:25:45.891Z,43.89
2023-05-02T16:28:13.295Z,44.20
2023-05-02T16:30:39.767Z,44.16
2023-05-02T16:35:50.450Z,44.05
2023-05-02T16:38:16.916Z,44.23
2023-05-02T16:40:44.264Z,44.31
2023-05-02T16:43:10.732Z,44.06
2023-05-02T16:45:38.131Z,44.35
2023-05-02T16:50:58.460Z,44.12
2023-05-02T16:53:24.918Z,44.44
2023-05-02T16:55:51.414Z,44.45
2023-05-02T16:58:18.827Z,44.58
2023-05-02T17:00:45.340Z,44.62
2023-05-02T17:05:57.571Z,44.78
2023-05-02T17:08:24.941Z,44.83
2023-05-02T17:10:51.412Z,44.30
2023-05-02T17:13:18.829Z,44.78
2023-05-02T17:15:45.314Z,44.77
2023-05-02T17:21:07.533Z,44.71
2023-05-02T17:23:34.912Z,44.66
2023-05-02T17:26:02.301Z,44.75
2023-05-02T17:28:29.693Z,44.51
2023-05-02T17:30:57.105Z,44.66
2023-05-02T17:36:08.482Z,44.80
2023-05-02T17:38:35.044Z,44.70
2023-05-02T17:41:02.371Z,44.88
2023-05-02T17:43:29.768Z,44.69
2023-05-02T17:45:57.212Z,44.80
2023-05-02T17:51:19.417Z,44.74
2023-05-02T17:53:45.915Z,44.91
2023-05-02T17:56:13.371Z,44.86
2023-05-02T17:58:39.849Z,45.09
2023-05-02T18:01:06.357Z,44.61
2023-05-02T18:06:17.191Z,44.89
2023-05-02T18:08:43.709Z,45.08
2023-05-02T18:11:10.188Z,44.83
2023-05-02T18:13:37.681Z,44.68
2023-05-02T18:16:05.280Z,44.93
2023-05-02T18:18:32.791Z,44.86
2023-05-02T18:20:59.281Z,44.70
2023-05-02T18:23:26.678Z,45.07
2023-05-02T18:25:54.122Z,44.99
2023-05-02T18:28:21.512Z,44.93
2023-05-02T18:30:47.950Z,44.98
2023-05-02T18:33:14.493Z,45.19
2023-05-02T18:35:40.980Z,45.23
2023-05-02T18:38:07.441Z,45.08
2023-05-02T18:40:33.919Z,44.75
2023-05-02T18:43:00.438Z,44.79
2023-05-02T18:45:27.824Z,44.50
2023-05-02T18:47:55.166Z,44.29
2023-05-02T18:50:22.575Z,44.39
2023-05-02T18:52:49.074Z,44.46
2023-05-02T18:55:15.538Z,44.36
2023-05-02T18:57:42.938Z,44.09
2023-05-02T19:00:09.416Z,44.26
2023-05-02T19:02:35.996Z,44.10
2023-05-02T19:05:03.721Z,43.99
2023-05-02T19:07:30.348Z,43.87
2023-05-02T19:09:57.720Z,43.71
2023-05-02T19:12:25.069Z,44.00
2023-05-02T19:14:51.528Z,44.04
2023-05-02T19:17:18.871Z,43.72
2023-05-02T19:19:45.341Z,44.03
2023-05-02T19:22:12.763Z,44.42
2023-05-02T19:24:40.160Z,44.36
2023-05-02T19:27:06.744Z,44.35
2023-05-02T19:29:34.207Z,44.39
2023-05-02T19:32:01.671Z,44.01
2023-05-02T19:34:28.253Z,44.06
2023-05-02T19:39:39.742Z,43.78
2023-05-02T19:42:06.162Z,44.04
2023-05-02T19:44:32.661Z,43.82
2023-05-02T19:46:59.132Z,43.65
2023-05-02T19:49:25.554Z,43.83
2023-05-02T19:54:36.872Z,43.99
2023-05-02T19:57:03.281Z,44.08
2023-05-02T19:59:29.759Z,43.93
2023-05-02T20:01:56.244Z,44.27
2023-05-02T20:04:22.645Z,43.78
2023-05-02T20:09:33.162Z,43.79
2023-05-02T20:11:59.647Z,43.88
2023-05-02T20:14:26.081Z,44.12
2023-05-02T20:16:53.387Z,44.39
2023-05-02T20:19:21.842Z,44.33
2023-05-02T20:24:32.417Z,45.08
2023-05-02T20:26:58.889Z,45.14
2023-05-02T20:29:25.408Z,44.89
2023-05-02T20:31:54.442Z,45.48
2023-05-02T20:34:22.181Z,45.20
2023-05-02T20:39:35.218Z,45.89
2023-05-02T20:42:01.623Z,46.43
2023-05-02T20:44:28.852Z,47.06
2023-05-02T20:46:56.066Z,46.54
2023-05-02T20:49:22.429Z,46.76
2023-05-02T20:54:33.084Z,46.63
2023-05-02T20:57:00.442Z,46.99
2023-05-02T20:59:26.934Z,46.62
2023-05-02T21:01:53.482Z,47.54
2023-05-02T21:04:20.548Z,47.30
2023-05-02T21:09:32.026Z,47.53
2023-05-02T21:11:59.404Z,46.93
2023-05-02T21:14:25.853Z,46.70
2023-05-02T21:16:52.328Z,47.10
2023-05-02T21:19:20.609Z,47.32
2023-05-02T21:24:31.801Z,47.04
2023-05-02T21:27:00.981Z,47.18
2023-05-02T21:29:27.358Z,46.81
2023-05-02T21:31:54.795Z,46.80
2023-05-02T21:34:21.397Z,47.22
2023-05-02T21:39:31.540Z,47.19
2023-05-02T21:41:57.873Z,47.11
2023-05-02T21:44:24.221Z,47.42
2023-05-02T21:46:50.601Z,46.98
2023-05-02T21:49:17.937Z,47.30
2023-05-02T21:51:44.517Z,47.38
2023-05-02T21:54:10.936Z,47.82
2023-05-02T21:56:37.287Z,47.65
2023-05-02T21:59:03.617Z,47.72
2023-05-02T22:01:30.045Z,47.68
2023-05-02T22:03:56.419Z,47.82
2023-05-02T22:06:22.885Z,47.78
2023-05-02T22:08:49.289Z,47.67
2023-05-02T22:11:15.654Z,47.75
2023-05-02T22:13:41.982Z,48.19
2023-05-02T22:16:08.461Z,48.15
2023-05-02T22:18:34.867Z,47.63
2023-05-02T22:21:01.299Z,47.64
2023-05-02T22:23:27.769Z,47.55
2023-05-02T22:25:55.150Z,47.21
2023-05-02T22:28:21.562Z,47.19
2023-05-02T22:30:47.987Z,47.29
2023-05-02T22:33:17.157Z,47.00
2023-05-02T22:35:43.565Z,47.17
2023-05-02T22:38:10.774Z,47.15
2023-05-02T22:40:37.184Z,47.06
2023-05-02T22:43:04.494Z,47.02
2023-05-02T22:45:30.876Z,47.30
2023-05-02T22:47:57.255Z,47.21
2023-05-02T22:50:23.608Z,47.12
2023-05-02T22:52:49.947Z,47.13
2023-05-02T22:58:10.204Z,46.79
2023-05-02T23:00:36.568Z,46.90
2023-05-02T23:03:02.979Z,46.83
2023-05-02T23:05:29.391Z,46.77
2023-05-02T23:07:55.783Z,46.92
2023-05-02T23:13:05.882Z,46.69
2023-05-02T23:15:32.201Z,46.89
2023-05-02T23:17:58.609Z,46.71
2023-05-02T23:20:24.954Z,46.56
2023-05-02T23:22:51.295Z,46.50
2023-05-02T23:28:01.643Z,46.67
2023-05-02T23:30:27.996Z,46.40
2023-05-02T23:32:54.425Z,46.66
2023-05-02T23:35:20.790Z,46.42
2023-05-02T23:37:47.150Z,46.39
2023-05-02T23:42:57.259Z,46.55
2023-05-02T23:45:23.624Z,46.56
2023-05-02T23:47:49.979Z,46.25
2023-05-02T23:50:16.369Z,46.18
2023-05-02T23:52:42.725Z,46.37
2023-05-02T23:57:52.935Z,46.20
